West Hartland, Connecticut
Current Conditions -  °F | °C
As of 6:51 PM on Sunday 25 Jan 2015 (Local Time) from KBDL Reporting Station
Overcast Overcast  
Wind Chill: -9°   Ceiling: 19000
Heat Index: -3°   Visibility: 10mi
Dew Point: -16°   Wind: 12mph
Humidity: 39%   Direction: 310°NW
Pressure: 29.91"   Gusts: NA
Location:  42°N, 72.97°W
Report Text: KBDL 252351Z 31010KT 10SM BKN190 OVC220 M03/M16 A2991 RMK AO2 SLP130 4/004 T10331156 10011 21033 53039 $
Loading
Personal Weather Stations






























Interactive Weather Map New forecast layout! Learn more

10-Day Weather Forecast

Advertisements
Track Severe Weather on mobile